Socorro, New Mexico
Current Conditions -  °F | °C
As of 10:15 PM on Sunday 19 Oct 2014 (Local Time) from KONM Reporting Station
Overcast Overcast  
Wind Chill: 11°   Ceiling: 11000
Heat Index: 11°   Visibility: 10mi
Dew Point:   Wind: 0mph
Humidity: 85%   Direction: NA
Pressure: 30.13"   Gusts: NA
Location:  34.06°N, 106.89°W
Report Text: KONM 200415Z AUTO 00000KT 10SM OVC110 12/09 A3013 RMK AO2 T01150090
Loading
Personal Weather Stations






























Interactive Weather Map
Tropical Storm Tracking
New forecast layout! Learn more

10-Day Weather Forecast

Advertisements
Track Severe Weather on mobile